createdAt,value
2023-04-16T00:04:27.273Z,4.63
2023-04-16T00:16:27.069Z,4.88
2023-04-16T00:22:47.563Z,4.63
2023-04-16T00:28:24.136Z,4.97
2023-04-16T00:34:07.027Z,4.55
2023-04-16T00:40:02.591Z,4.75
2023-04-16T00:45:21.080Z,5.22
2023-04-16T00:56:59.771Z,3.92
2023-04-16T01:14:31.712Z,4.05
2023-04-16T01:26:32.270Z,4.00
2023-04-16T01:32:05.140Z,3.17
2023-04-16T01:37:23.003Z,3.00
2023-04-16T01:48:44.043Z,2.50
2023-04-16T01:54:08.058Z,2.47
2023-04-16T02:00:23.685Z,3.08
2023-04-16T02:11:03.179Z,2.40
2023-04-16T02:16:44.259Z,2.65
2023-04-16T02:28:00.507Z,2.35
2023-04-16T02:33:41.066Z,2.92
2023-04-16T02:39:10.399Z,3.75
2023-04-16T02:44:53.655Z,3.20
2023-04-16T02:50:23.013Z,4.53
2023-04-16T02:56:03.590Z,4.20
2023-04-16T03:01:17.766Z,3.42
2023-04-16T03:06:49.678Z,4.22
2023-04-16T03:12:08.516Z,3.20
2023-04-16T03:18:03.259Z,2.88
2023-04-16T03:23:24.933Z,3.60
2023-04-16T03:29:02.921Z,2.30
2023-04-16T03:35:01.067Z,1.90
2023-04-16T03:40:19.939Z,2.40
2023-04-16T03:45:56.055Z,3.00
2023-04-16T03:57:31.597Z,1.92
2023-04-16T04:03:14.852Z,1.75
2023-04-16T04:09:33.006Z,3.20
2023-04-16T04:33:18.591Z,3.35
2023-04-16T04:44:54.562Z,2.28
2023-04-16T04:50:17.873Z,5.05
2023-04-16T04:56:11.683Z,3.67
2023-04-16T05:08:17.750Z,4.95
2023-04-16T05:14:05.065Z,3.70
2023-04-16T05:20:01.589Z,1.60
2023-04-16T05:26:07.766Z,1.20
2023-04-16T05:32:17.704Z,1.42
2023-04-16T05:38:07.921Z,1.05
2023-04-16T05:43:34.749Z,1.25
2023-04-16T05:54:57.569Z,1.10
2023-04-16T06:36:37.172Z,1.42
2023-04-16T06:42:56.988Z,1.23
2023-04-16T07:00:44.074Z,0.93
2023-04-16T07:06:08.163Z,1.23
2023-04-16T07:11:39.809Z,1.20
2023-04-16T07:17:35.127Z,1.73
2023-04-16T07:23:02.237Z,1.60
2023-04-16T07:34:55.899Z,1.58
2023-04-16T07:46:03.865Z,0.95
2023-04-16T07:51:27.613Z,1.05
2023-04-16T08:09:13.366Z,1.35
2023-04-16T08:15:07.118Z,0.93
2023-04-16T08:21:07.595Z,1.25
2023-04-16T08:27:42.034Z,1.10
2023-04-16T08:33:59.071Z,0.98
2023-04-16T08:45:26.227Z,1.13
2023-04-16T08:57:50.324Z,1.15
2023-04-16T09:03:15.142Z,1.15
2023-04-16T09:14:45.261Z,1.05
2023-04-16T09:20:47.661Z,1.65
2023-04-16T09:26:09.371Z,1.38
2023-04-16T09:32:12.927Z,1.38
2023-04-16T09:43:54.224Z,1.45
2023-04-16T09:56:08.186Z,1.35
2023-04-16T10:13:15.054Z,1.60
2023-04-16T10:18:46.010Z,1.25
2023-04-16T10:25:01.776Z,1.00
2023-04-16T10:30:23.116Z,1.58
2023-04-16T10:36:13.037Z,1.38
2023-04-16T10:54:46.912Z,1.67
2023-04-16T11:00:53.290Z,1.52
2023-04-16T11:12:57.473Z,2.15
2023-04-16T11:42:39.479Z,1.90
2023-04-16T11:53:42.546Z,1.58
2023-04-16T12:04:53.761Z,1.33
2023-04-16T12:10:37.783Z,1.45
2023-04-16T12:16:09.777Z,1.10
2023-04-16T12:44:19.022Z,1.63
2023-04-16T12:50:08.567Z,1.48
2023-04-16T12:55:34.907Z,1.83
2023-04-16T13:01:17.717Z,2.13
2023-04-16T13:30:59.897Z,1.55
2023-04-16T13:36:16.407Z,1.90
2023-04-16T13:42:21.034Z,2.03
2023-04-16T13:54:22.527Z,2.40
2023-04-16T14:11:38.673Z,2.00
2023-04-16T14:17:00.456Z,1.70
2023-04-16T14:34:04.818Z,1.67
2023-04-16T14:40:09.295Z,1.38
2023-04-16T14:45:31.826Z,1.70
2023-04-16T14:50:56.813Z,1.80
2023-04-16T14:56:12.084Z,1.77
2023-04-16T15:01:17.561Z,1.85
2023-04-16T15:06:24.002Z,1.75
2023-04-16T15:11:33.086Z,2.13
2023-04-16T15:16:38.847Z,1.98
2023-04-16T15:21:45.560Z,1.88
2023-04-16T15:26:52.775Z,2.53
2023-04-16T15:37:03.955Z,1.80
2023-04-16T15:42:14.292Z,1.75
2023-04-16T15:47:24.097Z,2.20
2023-04-16T16:03:42.377Z,2.83
2023-04-16T16:09:12.831Z,2.35
2023-04-16T16:14:38.003Z,2.42
2023-04-16T16:20:37.667Z,3.13
2023-04-16T16:25:55.118Z,3.33
2023-04-16T16:31:29.525Z,3.13
2023-04-16T16:36:52.934Z,4.13
2023-04-16T16:48:13.292Z,4.07
2023-04-16T16:54:16.429Z,4.40
2023-04-16T17:05:46.487Z,5.75
2023-04-16T17:16:51.087Z,5.90
2023-04-16T17:22:10.093Z,5.10
2023-04-16T17:28:01.128Z,5.63
2023-04-16T17:39:04.744Z,5.65
2023-04-16T17:50:32.475Z,7.13
2023-04-16T17:56:23.381Z,7.93
2023-04-16T18:02:02.296Z,7.10
2023-04-16T18:08:18.190Z,7.72
2023-04-16T18:19:25.899Z,9.95
2023-04-16T18:25:09.252Z,11.50
2023-04-16T18:30:51.713Z,13.25
2023-04-16T18:36:43.436Z,15.80
2023-04-16T18:42:48.584Z,27.70
2023-04-16T18:48:43.623Z,34.50
2023-04-16T18:54:12.923Z,29.23
2023-04-16T18:59:59.217Z,24.80
2023-04-16T19:05:49.412Z,20.33
2023-04-16T19:12:00.756Z,13.90
2023-04-16T19:17:32.322Z,9.80
2023-04-16T19:28:39.907Z,9.85
2023-04-16T19:34:19.966Z,9.43
2023-04-16T19:39:37.391Z,10.38
2023-04-16T19:45:08.108Z,10.00
2023-04-16T19:51:23.295Z,12.05
2023-04-16T19:57:19.027Z,12.75
2023-04-16T20:03:06.675Z,11.55
2023-04-16T20:14:46.847Z,8.68
2023-04-16T20:20:32.737Z,7.97
2023-04-16T20:25:59.654Z,6.10
2023-04-16T20:31:20.274Z,6.78
2023-04-16T20:49:23.276Z,6.65
2023-04-16T20:55:18.186Z,7.25
2023-04-16T21:13:38.051Z,8.52
2023-04-16T21:19:14.347Z,8.48
2023-04-16T21:25:07.762Z,9.68
2023-04-16T21:30:14.302Z,10.30
2023-04-16T21:35:36.801Z,10.40
2023-04-16T21:41:54.746Z,10.25
2023-04-16T21:47:38.053Z,10.10
2023-04-16T21:53:14.730Z,11.02
2023-04-16T22:17:31.064Z,9.88
2023-04-16T22:29:30.888Z,9.43
2023-04-16T22:35:19.340Z,9.60
2023-04-16T22:46:29.893Z,8.23
2023-04-16T22:52:02.585Z,8.57
2023-04-16T22:57:44.057Z,9.30
2023-04-16T23:09:16.974Z,7.95
2023-04-16T23:15:09.209Z,7.65
2023-04-16T23:20:58.120Z,8.15
2023-04-16T23:26:46.947Z,6.82
2023-04-16T23:32:51.845Z,7.63
2023-04-16T23:38:19.758Z,7.65
2023-04-16T23:43:47.002Z,8.13
2023-04-16T23:55:14.710Z,8.07
